Kona International At Keahole, HI

6:06 PM HST on December 10, 2016 (GMT -1000)
Kona International At Keahole | | Change Station

Elev 43 ft 19.74 °N, 156.05 °W | Updated 13 minutes ago

Light Rain
Light Rain
74 °F
Feels Like 74 °F
N
9
Wind Variable Wind from North

Today
High -- | Low -- °F
--% Chance of Precip.
Yesterday
High -- | Low -- °F
Precip. -- in
Pressure 29.95 in
Visibility 10.0 miles
Clouds Few 1400 ft
Overcast 4800 ft
Dew Point 72 °F
Humidity 93%
Rainfall 0.22 in
Snow Depth Not available.
6:48 AM 5:46 PM
Waxing Gibbous, 88% visible
METAR PHKO 110353Z 36008KT 10SM -RA FEW014 OVC048 23/22 A2995 RMK AO2 SLP142 P0000 T02330222 $
Pressure 29.95 in
Visibility 10.0 miles
Clouds Few 1400 ft
Overcast 4800 ft
Dew Point 72 °F
Humidity 93%
Rainfall 0.22 in
Snow Depth Not available.
6:48 AM 5:46 PM
Waxing Gibbous, 88% visible
METAR PHKO 110353Z 36008KT 10SM -RA FEW014 OVC048 23/22 A2995 RMK AO2 SLP142 P0000 T02330222 $

10-Day Weather Forecast

Almanac

Astronomy

Dec. 10, 2016 Rise Set
Actual Time
Civil Twilight
Nautical Twilight
Astronomical Twilight
Moon
Length of Visible Light
Length of Day
Tomorrow will be .
, % of the Moon is Illuminated

Today's Extremes

State Highs State Lows

Community

WunderPhotos

Upload Photos

1,956,704 photos uploaded!

WunderBlog® & News

Nearby

Air Quality

  Air Quality AQ Index Pollutant
Not available.

Snow Depth

Station Depth Elevation

Earthquake Activity

City Distance Mag. Time & Date
Minimum magnitude displayed is 2.5.

Coastal Water Temperatures

Place Temperature

Stations

Nearby Weather Stations

Station Location Temp. Windchill Dew Point Humidity Wind Precip. Elev Updated Type
                   

Watches & Warnings

There are currently no watches in effect.